Time;durP1;ratioP1;P1;durP2;ratioP2;P2;SDS_P1;SDS_P2;PMS_P1;PMS_P2;Temp;Humidity;BMP_temperature;BMP_pressure;BME280_temperature;BME280_humidity;BME280_pressure;Samples;Min_cycle;Max_cycle;Signal;HPM_P1;HPM_P2
2020/12/03 00:01:32;;;;;;;60.90;34.17;;;0.70;99.90;;;;;;5040823;28;20178;-94
2020/12/03 00:04:03;;;;;;;61.23;34.50;;;0.70;99.90;;;;;;5041153;28;20927;-96
2020/12/03 00:06:48;;;;;;;58.73;34.83;;;0.70;99.90;;;;;;5039064;28;20173;-96
2020/12/03 00:09:16;;;;;;;57.93;33.47;;;0.70;99.90;;;;;;5037764;28;20180;-96
2020/12/03 00:11:45;;;;;;;54.40;31.70;;;0.70;99.90;;;;;;5037109;28;20185;-96
2020/12/03 00:14:11;;;;;;;55.77;32.27;;;0.70;99.90;;;;;;5038320;28;20178;-96
2020/12/03 00:16:39;;;;;;;55.70;33.20;;;0.70;99.90;;;;;;5036639;28;20182;-96
2020/12/03 00:19:07;;;;;;;54.43;31.37;;;0.70;99.90;;;;;;5039880;28;20231;-96
2020/12/03 00:21:44;;;;;;;59.63;32.00;;;0.70;99.90;;;;;;5040732;28;20179;-96
2020/12/03 00:24:12;;;;;;;54.57;30.93;;;0.70;99.90;;;;;;5041140;28;20177;-96
2020/12/03 00:26:47;;;;;;;55.17;32.20;;;0.60;99.90;;;;;;5040716;28;20274;-96
2020/12/03 00:29:13;;;;;;;57.50;33.23;;;0.60;99.90;;;;;;5041015;28;20520;-96
2020/12/03 00:31:43;;;;;;;55.40;32.00;;;0.60;99.90;;;;;;5040429;28;20178;-95
2020/12/03 00:34:09;;;;;;;55.63;31.00;;;0.60;99.90;;;;;;5043179;28;20189;-96
2020/12/03 00:36:38;;;;;;;53.13;32.20;;;0.70;99.90;;;;;;5041456;28;20665;-96
2020/12/03 00:39:07;;;;;;;56.30;33.17;;;0.70;99.90;;;;;;5041734;28;20181;-96
2020/12/03 00:41:32;;;;;;;52.50;32.13;;;0.70;99.90;;;;;;5042687;28;20178;-93
2020/12/03 00:43:58;;;;;;;56.23;32.00;;;0.60;99.90;;;;;;5041209;28;20618;-96
2020/12/03 00:46:32;;;;;;;52.83;31.57;;;0.70;99.90;;;;;;5040806;28;20617;-96
2020/12/03 00:48:58;;;;;;;51.97;30.80;;;0.70;99.90;;;;;;5042083;28;20195;-96
2020/12/03 00:51:26;;;;;;;51.37;30.00;;;0.60;99.90;;;;;;5041003;28;20178;-96
2020/12/03 00:53:52;;;;;;;54.90;30.87;;;0.70;99.90;;;;;;5041455;28;20255;-96
2020/12/03 00:56:19;;;;;;;52.23;30.73;;;0.60;99.90;;;;;;5041299;28;20531;-96
2020/12/03 00:58:46;;;;;;;52.43;31.07;;;0.60;99.90;;;;;;5040199;28;20310;-96
2020/12/03 01:01:13;;;;;;;51.30;30.37;;;0.60;99.90;;;;;;5039744;28;20178;-96
2020/12/03 01:03:39;;;;;;;56.23;30.90;;;0.70;99.90;;;;;;5040859;28;20280;-96
2020/12/03 01:06:05;;;;;;;54.10;31.97;;;0.60;99.90;;;;;;5041136;28;20215;-95
2020/12/03 01:08:30;;;;;;;55.77;30.90;;;0.70;99.90;;;;;;5057839;28;20177;-93
2020/12/03 01:10:56;;;;;;;51.67;30.10;;;0.70;99.90;;;;;;5057798;28;20185;-96
2020/12/03 01:13:23;;;;;;;48.97;29.20;;;0.70;99.90;;;;;;5039921;28;20189;-95
2020/12/03 01:15:52;;;;;;;50.50;30.30;;;0.70;99.90;;;;;;5040600;28;20624;-96
2020/12/03 01:18:17;;;;;;;52.37;30.53;;;0.70;99.90;;;;;;5038279;28;20217;-95
2020/12/03 01:20:43;;;;;;;55.80;31.07;;;0.70;99.90;;;;;;5039542;28;20188;-96
2020/12/03 01:23:09;;;;;;;55.00;30.37;;;0.80;99.90;;;;;;5055972;28;20263;-96
2020/12/03 01:25:35;;;;;;;53.23;29.63;;;0.80;99.90;;;;;;5056709;28;20209;-96
2020/12/03 01:28:17;;;;;;;48.27;29.03;;;0.70;99.90;;;;;;5039915;28;20510;-96
2020/12/03 01:30:44;;;;;;;51.23;29.53;;;0.70;99.90;;;;;;5040032;28;20170;-96
2020/12/03 01:33:09;;;;;;;51.63;29.50;;;0.70;99.90;;;;;;5038904;28;20190;-95
2020/12/03 01:35:35;;;;;;;51.83;29.73;;;0.70;99.90;;;;;;5040141;28;20599;-96
2020/12/03 01:38:14;;;;;;;53.37;29.63;;;0.80;99.90;;;;;;5039037;28;20749;-96
2020/12/03 01:40:40;;;;;;;54.00;28.30;;;0.70;99.90;;;;;;5038517;28;20176;-92
2020/12/03 01:43:05;;;;;;;47.67;28.57;;;0.80;99.90;;;;;;5037872;28;20215;-93
2020/12/03 01:45:57;;;;;;;48.77;28.23;;;0.80;99.90;;;;;;5037241;28;20182;-92
2020/12/03 01:48:37;;;;;;;48.33;28.33;;;0.80;99.90;;;;;;5037376;28;20173;-92
2020/12/03 01:51:25;;;;;;;50.20;28.57;;;0.80;99.90;;;;;;5055009;28;20165;-93
2020/12/03 01:53:58;;;;;;;49.00;27.83;;;0.80;99.90;;;;;;5054144;28;20271;-95
2020/12/03 01:57:20;;;;;;;48.87;29.30;;;0.80;99.90;;;;;;5037017;28;20179;-95
2020/12/03 01:59:59;;;;;;;50.30;29.20;;;0.80;99.90;;;;;;4974066;28;20234;-92
2020/12/03 02:02:25;;;;;;;53.23;28.37;;;0.80;99.90;;;;;;5054763;28;20167;-92
2020/12/03 02:05:18;;;;;;;49.23;27.70;;;0.80;99.90;;;;;;5037071;28;20564;-93
2020/12/03 02:07:46;;;;;;;52.33;28.23;;;0.80;99.90;;;;;;5036548;28;20174;-94
2020/12/03 02:10:13;;;;;;;49.83;27.37;;;0.80;99.90;;;;;;5037157;28;20242;-92
2020/12/03 02:12:39;;;;;;;51.10;29.00;;;0.70;99.90;;;;;;5039349;28;20192;-92
2020/12/03 02:15:06;;;;;;;46.67;27.80;;;0.80;99.90;;;;;;5040427;28;20174;-92
2020/12/03 02:17:33;;;;;;;49.83;28.07;;;0.80;99.90;;;;;;5040670;28;20308;-91
2020/12/03 02:20:00;;;;;;;48.83;28.07;;;0.70;99.90;;;;;;5037425;28;20225;-95
2020/12/03 02:22:26;;;;;;;45.77;27.47;;;0.80;99.90;;;;;;5041099;28;20214;-96
2020/12/03 02:24:53;;;;;;;48.63;28.07;;;0.80;99.90;;;;;;5040300;28;20665;-96
2020/12/03 02:27:22;;;;;;;48.27;28.47;;;0.80;99.90;;;;;;5038243;28;20180;-96
2020/12/03 02:29:49;;;;;;;49.20;28.60;;;0.80;99.90;;;;;;5038172;28;20181;-96
2020/12/03 02:32:16;;;;;;;46.43;27.07;;;0.80;99.90;;;;;;5038371;28;20189;-96
2020/12/03 02:34:42;;;;;;;51.87;28.27;;;0.80;99.90;;;;;;5038578;28;20185;-96
2020/12/03 02:37:09;;;;;;;47.57;27.47;;;0.80;99.90;;;;;;5037655;28;20240;-96
2020/12/03 02:39:36;;;;;;;45.87;26.70;;;0.80;99.90;;;;;;5037978;28;20193;-96
2020/12/03 02:42:07;;;;;;;50.37;27.77;;;0.80;99.90;;;;;;5038107;28;20186;-96
2020/12/03 02:44:34;;;;;;;46.17;26.73;;;0.90;99.90;;;;;;5037729;28;20243;-96
2020/12/03 02:47:01;;;;;;;47.47;26.87;;;0.80;99.90;;;;;;5037179;28;20178;-96
2020/12/03 02:49:27;;;;;;;50.63;28.07;;;0.80;99.90;;;;;;5025900;28;20516;-96
2020/12/03 02:51:52;;;;;;;46.57;26.27;;;0.90;99.90;;;;;;5017536;28;20179;-94
2020/12/03 02:54:18;;;;;;;44.03;25.70;;;0.90;99.90;;;;;;5017869;28;20264;-96
2020/12/03 02:56:44;;;;;;;49.20;27.67;;;0.90;99.90;;;;;;5016825;28;20175;-96
2020/12/03 02:59:11;;;;;;;48.77;26.73;;;0.80;99.90;;;;;;5018774;28;20540;-96
2020/12/03 03:01:37;;;;;;;46.60;26.93;;;0.80;99.90;;;;;;5016639;28;20637;-96
2020/12/03 03:04:04;;;;;;;48.13;27.23;;;0.80;99.90;;;;;;5017096;28;20190;-96
2020/12/03 03:06:34;;;;;;;47.70;25.83;;;0.80;99.90;;;;;;5016997;28;20175;-96
2020/12/03 03:09:02;;;;;;;46.37;26.17;;;0.80;99.90;;;;;;5016341;28;20230;-96
2020/12/03 03:11:28;;;;;;;46.30;25.70;;;0.90;99.90;;;;;;5017703;28;20181;-96
2020/12/03 03:13:53;;;;;;;43.90;26.13;;;0.90;99.90;;;;;;5019501;28;20255;-92
2020/12/03 03:16:19;;;;;;;40.40;24.23;;;0.90;99.90;;;;;;5020563;28;20225;-96
2020/12/03 03:21:56;;;;;;;40.10;24.70;;;0.90;99.90;;;;;;4899941;29;20319;-95
2020/12/03 03:24:21;;;;;;;40.53;24.30;;;0.90;99.90;;;;;;4901788;29;20193;-96
2020/12/03 03:26:47;;;;;;;41.60;24.60;;;0.90;99.90;;;;;;4886293;29;20188;-95
2020/12/03 03:29:13;;;;;;;38.23;23.53;;;0.90;99.90;;;;;;4885901;29;20201;-96
2020/12/03 03:31:44;;;;;;;40.27;24.20;;;0.90;99.90;;;;;;4886196;29;20190;-96
2020/12/03 03:34:10;;;;;;;38.43;23.57;;;0.90;99.90;;;;;;4886825;29;20502;-96
2020/12/03 03:36:36;;;;;;;38.80;24.27;;;0.90;99.90;;;;;;4886349;29;20187;-96
2020/12/03 03:39:04;;;;;;;41.17;23.03;;;0.90;99.90;;;;;;4885626;29;20215;-92
2020/12/03 03:41:43;;;;;;;37.17;23.00;;;1.00;99.90;;;;;;4885796;29;20195;-95
2020/12/03 03:44:09;;;;;;;35.27;21.40;;;1.00;99.90;;;;;;4886090;29;20188;-95
2020/12/03 03:46:35;;;;;;;38.07;23.27;;;1.00;99.90;;;;;;4886427;29;20191;-95
2020/12/03 03:49:00;;;;;;;39.70;23.40;;;0.90;99.90;;;;;;4902303;29;20264;-94
2020/12/03 03:51:30;;;;;;;35.90;21.23;;;1.00;99.90;;;;;;4874587;29;20237;-95
2020/12/03 03:53:56;;;;;;;35.57;22.37;;;1.00;99.90;;;;;;4882598;29;20182;-96
2020/12/03 03:56:22;;;;;;;35.80;22.27;;;0.90;99.90;;;;;;4882060;29;20189;-96
2020/12/03 03:58:47;;;;;;;35.33;20.77;;;1.00;99.90;;;;;;4882406;29;20217;-96
2020/12/03 04:01:16;;;;;;;36.33;21.07;;;1.00;99.90;;;;;;4882217;29;20186;-96
2020/12/03 04:03:42;;;;;;;34.93;21.00;;;1.00;99.90;;;;;;4882446;29;20183;-96
2020/12/03 04:06:08;;;;;;;38.57;22.50;;;1.00;99.90;;;;;;4883173;29;20176;-96
2020/12/03 04:08:33;;;;;;;34.77;21.43;;;1.00;99.90;;;;;;4882204;29;20183;-96
2020/12/03 04:10:59;;;;;;;34.57;21.10;;;1.00;99.90;;;;;;4882525;29;20275;-96
2020/12/03 04:13:25;;;;;;;33.93;20.77;;;1.00;99.90;;;;;;4883159;29;20272;-96
2020/12/03 04:15:52;;;;;;;35.73;21.30;;;1.00;99.90;;;;;;4882559;29;20242;-96
2020/12/03 04:18:25;;;;;;;36.03;22.17;;;1.00;99.90;;;;;;4881975;29;20217;-96
2020/12/03 04:20:52;;;;;;;34.50;21.00;;;0.90;99.90;;;;;;4882535;29;20239;-95
2020/12/03 04:23:18;;;;;;;36.40;21.77;;;0.90;99.90;;;;;;4882983;29;20516;-95
2020/12/03 04:25:43;;;;;;;37.10;21.57;;;0.90;99.90;;;;;;4882351;29;20183;-95
2020/12/03 04:28:09;;;;;;;36.00;21.70;;;0.90;99.90;;;;;;4882195;29;20191;-96
2020/12/03 04:30:35;;;;;;;36.07;20.97;;;0.90;99.90;;;;;;4882344;29;20247;-96
2020/12/03 04:33:05;;;;;;;41.10;23.10;;;0.90;99.90;;;;;;4882498;29;20179;-96
2020/12/03 04:35:31;;;;;;;36.63;22.30;;;0.90;99.90;;;;;;4880794;29;20216;-96
2020/12/03 04:37:57;;;;;;;36.97;21.17;;;0.90;99.90;;;;;;4881805;29;20212;-95
2020/12/03 04:40:30;;;;;;;36.73;21.37;;;0.90;99.90;;;;;;4881432;29;20184;-96
2020/12/03 04:43:23;;;;;;;33.73;21.30;;;1.00;99.90;;;;;;4881411;29;20194;-93
2020/12/03 04:46:04;;;;;;;39.20;22.53;;;1.00;99.90;;;;;;4881521;29;20191;-96
2020/12/03 04:49:23;;;;;;;38.40;22.77;;;1.00;99.90;;;;;;4881494;29;20273;-93
2020/12/03 04:52:01;;;;;;;37.67;21.50;;;0.90;99.90;;;;;;4880615;29;20212;-96
2020/12/03 04:54:59;;;;;;;39.43;22.93;;;0.90;99.90;;;;;;4866567;29;20254;-96
2020/12/03 04:57:45;;;;;;;39.43;24.10;;;1.00;99.90;;;;;;4850497;29;20293;-96
2020/12/03 05:00:48;;;;;;;39.87;23.33;;;0.90;99.90;;;;;;4880765;29;20195;-96
2020/12/03 05:03:33;;;;;;;38.57;22.40;;;0.90;99.90;;;;;;4882828;29;20187;-96
2020/12/03 05:06:30;;;;;;;41.07;24.00;;;1.00;99.90;;;;;;4880342;29;20199;-96
2020/12/03 05:09:21;;;;;;;38.47;23.27;;;1.00;99.90;;;;;;4861915;29;20204;-94
2020/12/03 05:12:03;;;;;;;41.77;23.97;;;1.00;99.90;;;;;;4882828;29;20217;-96
2020/12/03 05:14:40;;;;;;;38.93;24.27;;;0.90;99.90;;;;;;4882488;29;20187;-96
2020/12/03 05:17:37;;;;;;;40.50;23.73;;;0.90;99.90;;;;;;4881403;29;20241;-95
2020/12/03 05:20:24;;;;;;;38.53;23.43;;;0.90;99.90;;;;;;4866203;29;20231;-95
2020/12/03 05:23:09;;;;;;;41.53;24.33;;;0.90;99.90;;;;;;4882232;29;20187;-94
2020/12/03 05:25:34;;;;;;;45.17;25.67;;;1.00;99.90;;;;;;4881731;29;20312;-95
2020/12/03 05:28:30;;;;;;;42.20;24.57;;;0.90;99.90;;;;;;4881952;29;20203;-94
2020/12/03 05:31:06;;;;;;;41.77;25.13;;;0.90;99.90;;;;;;4872468;29;20621;-94
2020/12/03 05:33:34;;;;;;;41.00;24.93;;;0.90;99.90;;;;;;4881857;29;20625;-93
2020/12/03 05:36:00;;;;;;;39.67;24.33;;;0.90;99.90;;;;;;4884544;29;20183;-95
2020/12/03 05:38:26;;;;;;;42.03;24.03;;;0.90;99.90;;;;;;4885521;29;20222;-91
2020/12/03 05:41:02;;;;;;;41.00;24.03;;;1.00;99.90;;;;;;4886190;29;20191;-93
2020/12/03 05:43:35;;;;;;;42.10;24.93;;;1.00;99.90;;;;;;4886565;29;20193;-92
2020/12/03 05:46:03;;;;;;;40.33;23.37;;;1.00;99.90;;;;;;4885287;29;20196;-93
2020/12/03 05:48:32;;;;;;;39.80;24.07;;;0.90;99.90;;;;;;4890164;29;20245;-93
2020/12/03 05:50:57;;;;;;;42.13;24.30;;;1.00;99.90;;;;;;4905153;29;20189;-96
2020/12/03 05:53:28;;;;;;;41.67;24.83;;;1.00;99.90;;;;;;4889123;29;20189;-96
2020/12/03 05:56:19;;;;;;;40.23;24.03;;;1.00;99.90;;;;;;4888936;29;20275;-96
2020/12/03 05:58:44;;;;;;;42.30;25.00;;;1.00;99.90;;;;;;4889053;29;20214;-96
2020/12/03 06:01:14;;;;;;;40.63;24.10;;;1.00;99.90;;;;;;4888831;29;20190;-96
2020/12/03 06:04:04;;;;;;;42.40;24.83;;;1.00;99.90;;;;;;4889097;29;20340;-96
2020/12/03 06:07:05;;;;;;;44.03;23.57;;;1.00;99.90;;;;;;4904807;29;20179;-96
2020/12/03 06:09:55;;;;;;;39.77;23.63;;;1.00;99.90;;;;;;4888785;29;20189;-93
2020/12/03 06:13:16;;;;;;;40.83;24.27;;;1.00;99.90;;;;;;4903411;29;20277;-92
2020/12/03 06:15:49;;;;;;;38.77;22.97;;;1.00;99.90;;;;;;4846478;29;20184;-92
2020/12/03 06:18:35;;;;;;;42.33;23.07;;;1.00;99.90;;;;;;4877788;29;20221;-93
2020/12/03 06:21:32;;;;;;;37.60;23.60;;;1.00;99.90;;;;;;4878749;29;20612;-94
2020/12/03 06:24:19;;;;;;;41.00;22.67;;;1.00;99.90;;;;;;4883977;29;20205;-95
2020/12/03 06:27:22;;;;;;;40.70;23.70;;;1.10;99.90;;;;;;4886214;29;20612;-94
2020/12/03 06:30:00;;;;;;;38.73;23.67;;;1.00;99.90;;;;;;4885918;29;20271;-95
2020/12/03 06:32:39;;;;;;;36.13;22.47;;;1.00;99.90;;;;;;4888333;29;20712;-96
2020/12/03 06:35:32;;;;;;;37.07;22.83;;;1.10;99.90;;;;;;4887475;29;20613;-96
2020/12/03 06:38:17;;;;;;;35.13;21.67;;;1.10;99.90;;;;;;4886900;29;20283;-96
2020/12/03 06:40:59;;;;;;;36.93;22.10;;;1.10;99.90;;;;;;4886194;29;20168;-96
2020/12/03 06:43:50;;;;;;;37.67;23.20;;;1.10;99.90;;;;;;4886245;29;20180;-96
2020/12/03 06:46:15;;;;;;;36.47;23.10;;;1.00;99.90;;;;;;4885186;29;20182;-96
2020/12/03 06:48:41;;;;;;;34.63;21.77;;;1.00;99.90;;;;;;4886582;29;20211;-95
2020/12/03 06:51:34;;;;;;;36.70;21.87;;;1.10;99.90;;;;;;4885918;29;20187;-96
2020/12/03 06:54:18;;;;;;;36.57;22.27;;;1.10;99.90;;;;;;4886561;29;20247;-96
2020/12/03 06:57:21;;;;;;;35.17;21.37;;;1.10;99.90;;;;;;4885924;29;20186;-95
2020/12/03 07:00:13;;;;;;;36.57;21.40;;;1.10;99.90;;;;;;4886460;29;20250;-96
2020/12/03 07:03:01;;;;;;;32.30;19.90;;;1.10;99.90;;;;;;4880449;29;20340;-96
2020/12/03 07:06:00;;;;;;;35.60;21.73;;;1.10;99.90;;;;;;4886899;29;20191;-96
2020/12/03 07:08:46;;;;;;;33.10;20.07;;;1.10;99.90;;;;;;4887224;29;20188;-96
2020/12/03 07:11:50;;;;;;;35.87;20.20;;;1.10;99.90;;;;;;4885962;29;20598;-95
2020/12/03 07:15:11;;;;;;;31.67;20.27;;;1.10;99.90;;;;;;4889306;29;20194;-96
2020/12/03 07:17:58;;;;;;;35.13;20.17;;;1.10;99.90;;;;;;4864834;29;20231;-96
2020/12/03 07:20:39;;;;;;;34.67;20.83;;;1.10;99.90;;;;;;4891255;29;20666;-96
2020/12/03 07:23:24;;;;;;;33.93;19.80;;;1.10;99.90;;;;;;4906513;29;20176;-96
2020/12/03 07:25:50;;;;;;;31.03;18.90;;;1.20;99.90;;;;;;4904767;29;20179;-96
2020/12/03 07:28:23;;;;;;;32.20;19.60;;;1.20;99.90;;;;;;4905982;29;20192;-96
2020/12/03 07:30:53;;;;;;;31.73;19.73;;;1.20;99.90;;;;;;4890590;29;20235;-96
2020/12/03 07:34:01;;;;;;;31.13;19.23;;;1.10;99.90;;;;;;4889562;29;20203;-96
2020/12/03 07:36:52;;;;;;;30.23;19.20;;;1.20;99.90;;;;;;4890793;29;20200;-96
2020/12/03 07:39:24;;;;;;;29.97;18.53;;;1.20;99.90;;;;;;4887347;29;20749;-96
2020/12/03 07:41:59;;;;;;;30.97;18.23;;;1.20;99.90;;;;;;4889105;29;20618;-96
2020/12/03 07:44:40;;;;;;;31.10;18.33;;;1.20;99.90;;;;;;4888779;29;20190;-96
2020/12/03 07:47:17;;;;;;;31.73;18.43;;;1.20;99.90;;;;;;4904997;29;20574;-96
2020/12/03 07:49:46;;;;;;;28.67;17.50;;;1.30;99.90;;;;;;4905150;29;20234;-96
2020/12/03 07:52:34;;;;;;;27.83;17.50;;;1.30;99.90;;;;;;4871721;29;20193;-94
2020/12/03 07:55:36;;;;;;;29.33;17.90;;;1.30;99.90;;;;;;4872727;29;20184;-96
2020/12/03 07:58:02;;;;;;;29.10;17.67;;;1.30;99.90;;;;;;4835159;29;20224;-95
2020/12/03 08:00:34;;;;;;;28.70;17.97;;;1.30;99.90;;;;;;4866920;29;20622;-96
2020/12/03 08:03:30;;;;;;;29.13;17.43;;;1.40;99.90;;;;;;4887576;29;20191;-96
2020/12/03 08:06:17;;;;;;;30.50;18.03;;;1.40;99.90;;;;;;4887165;29;20188;-95
2020/12/03 08:08:47;;;;;;;28.23;16.73;;;1.40;99.90;;;;;;4886431;29;20176;-95
2020/12/03 08:11:43;;;;;;;28.37;16.90;;;1.40;99.90;;;;;;4888103;29;20255;-96
2020/12/03 08:14:40;;;;;;;26.90;16.77;;;1.50;99.90;;;;;;4890064;29;20199;-96
2020/12/03 08:17:26;;;;;;;28.27;16.97;;;1.50;99.90;;;;;;4888571;29;20216;-95
2020/12/03 08:20:14;;;;;;;25.43;16.60;;;1.60;99.90;;;;;;4879977;29;20703;-93
2020/12/03 08:22:52;;;;;;;25.10;16.00;;;1.60;99.90;;;;;;4900565;29;20275;-96
2020/12/03 08:25:32;;;;;;;26.63;16.63;;;1.60;99.90;;;;;;4869403;29;20190;-91
2020/12/03 08:28:06;;;;;;;25.57;15.43;;;1.60;99.90;;;;;;4869492;29;20186;-93
2020/12/03 08:30:37;;;;;;;27.57;16.77;;;1.60;99.90;;;;;;4884468;29;20164;-93
2020/12/03 08:33:15;;;;;;;25.63;16.27;;;1.60;99.90;;;;;;4898814;29;20194;-93
2020/12/03 08:35:49;;;;;;;25.73;15.60;;;1.60;99.90;;;;;;4869270;29;20203;-91
2020/12/03 08:38:25;;;;;;;27.83;16.60;;;1.60;99.90;;;;;;4868693;29;20239;-93
2020/12/03 08:40:56;;;;;;;25.80;16.43;;;1.60;99.90;;;;;;4869503;29;20251;-91
2020/12/03 08:43:23;;;;;;;25.97;16.23;;;1.60;99.90;;;;;;4869727;29;20190;-92
2020/12/03 08:46:03;;;;;;;25.90;16.10;;;1.60;99.90;;;;;;4900381;29;20213;-94
2020/12/03 08:48:33;;;;;;;25.87;15.83;;;1.60;99.90;;;;;;4869097;29;20188;-93
2020/12/03 08:51:01;;;;;;;23.23;15.03;;;1.60;99.90;;;;;;4866014;29;20190;-96
2020/12/03 08:53:32;;;;;;;25.73;15.67;;;1.60;99.90;;;;;;4869087;29;20194;-92
2020/12/03 08:56:15;;;;;;;26.53;15.00;;;1.70;99.90;;;;;;4870571;29;20203;-91
2020/12/03 08:59:01;;;;;;;24.93;15.33;;;1.70;99.90;;;;;;4898719;29;20222;-93
2020/12/03 09:01:38;;;;;;;24.00;15.57;;;1.70;99.90;;;;;;4865542;29;20181;-93
2020/12/03 09:04:10;;;;;;;25.23;15.87;;;1.70;99.90;;;;;;4865909;29;20185;-94
2020/12/03 09:06:48;;;;;;;24.40;15.30;;;1.70;99.90;;;;;;4893818;29;20175;-92
2020/12/03 09:09:18;;;;;;;22.50;15.23;;;1.70;99.90;;;;;;4883777;29;20584;-92
2020/12/03 09:11:45;;;;;;;23.77;15.47;;;1.70;99.90;;;;;;4882844;29;20194;-90
2020/12/03 09:14:39;;;;;;;27.43;15.60;;;1.80;99.90;;;;;;4883364;29;20186;-92
2020/12/03 09:17:08;;;;;;;22.73;15.00;;;1.90;99.90;;;;;;4898942;29;20248;-91
2020/12/03 09:19:36;;;;;;;22.80;14.97;;;1.90;99.90;;;;;;4883139;29;20191;-91
2020/12/03 09:22:02;;;;;;;22.53;14.73;;;2.00;99.90;;;;;;4884981;29;20279;-92
2020/12/03 09:24:29;;;;;;;21.73;13.87;;;2.00;99.90;;;;;;4887138;29;20385;-90
2020/12/03 09:27:06;;;;;;;23.43;14.53;;;2.10;99.90;;;;;;4884438;29;20186;-90
2020/12/03 09:29:32;;;;;;;22.07;13.90;;;2.10;99.90;;;;;;4887034;29;20265;-93
2020/12/03 09:32:12;;;;;;;22.30;14.57;;;2.10;99.90;;;;;;4885706;29;20190;-91
2020/12/03 09:34:49;;;;;;;23.63;15.10;;;2.10;99.90;;;;;;4870909;29;20176;-91
2020/12/03 09:37:15;;;;;;;22.67;14.87;;;2.10;99.90;;;;;;4871030;29;20195;-96
2020/12/03 09:39:41;;;;;;;22.40;14.87;;;2.20;99.90;;;;;;4869423;29;20183;-91
2020/12/03 09:42:17;;;;;;;24.00;14.33;;;2.20;99.90;;;;;;4879060;29;20653;-92
2020/12/03 09:44:48;;;;;;;24.10;15.10;;;2.30;99.90;;;;;;4886974;29;20171;-91
2020/12/03 09:47:18;;;;;;;23.90;14.57;;;2.30;99.90;;;;;;4881699;29;20164;-92
2020/12/03 09:49:47;;;;;;;22.57;14.77;;;2.30;99.90;;;;;;4884997;29;20232;-91
2020/12/03 09:52:13;;;;;;;24.90;15.80;;;2.30;99.90;;;;;;4884448;29;20187;-93
2020/12/03 09:54:40;;;;;;;23.47;14.73;;;2.30;99.90;;;;;;4887072;29;20191;-95
2020/12/03 09:57:09;;;;;;;23.37;15.27;;;2.30;99.90;;;;;;4886814;29;20203;-92
2020/12/03 09:59:38;;;;;;;28.33;16.33;;;2.30;99.90;;;;;;4886908;29;20216;-92
2020/12/03 10:02:13;;;;;;;27.07;16.83;;;2.40;99.90;;;;;;4887331;29;20211;-91
2020/12/03 10:05:18;;;;;;;26.30;16.00;;;2.40;99.90;;;;;;4902561;29;20190;-95
2020/12/03 10:08:09;;;;;;;22.63;15.17;;;2.40;99.90;;;;;;4902187;29;20179;-92
2020/12/03 10:10:59;;;;;;;28.37;15.90;;;2.40;99.90;;;;;;4887290;29;20186;-92
2020/12/03 10:14:11;;;;;;;25.70;15.97;;;2.50;99.90;;;;;;4902296;29;20187;-92
2020/12/03 10:16:43;;;;;;;25.50;15.93;;;2.50;99.90;;;;;;4886712;29;20270;-92
2020/12/03 10:19:11;;;;;;;27.83;16.87;;;2.50;99.90;;;;;;4886402;29;20286;-93
2020/12/03 10:21:53;;;;;;;31.17;18.40;;;2.50;99.90;;;;;;4885499;29;20346;-92
2020/12/03 10:24:25;;;;;;;28.83;17.23;;;2.60;99.90;;;;;;4886399;29;20190;-92
2020/12/03 10:27:11;;;;;;;28.37;16.80;;;2.50;99.90;;;;;;4886150;29;20179;-92
2020/12/03 10:30:02;;;;;;;29.87;17.87;;;2.60;99.90;;;;;;4885976;29;20192;-92
2020/12/03 10:32:29;;;;;;;26.23;16.17;;;2.50;99.90;;;;;;4886430;29;20175;-91
2020/12/03 10:34:56;;;;;;;28.03;17.17;;;2.50;99.90;;;;;;4886063;29;20186;-93
2020/12/03 10:37:27;;;;;;;28.23;17.00;;;2.50;99.90;;;;;;4885466;29;20246;-91
2020/12/03 10:40:00;;;;;;;27.83;17.30;;;2.50;99.90;;;;;;4885653;29;20574;-92
2020/12/03 10:42:37;;;;;;;29.27;16.90;;;2.50;99.90;;;;;;4886633;29;20188;-92
2020/12/03 10:45:16;;;;;;;29.73;17.83;;;2.50;99.90;;;;;;4869617;29;20183;-90
2020/12/03 10:47:57;;;;;;;28.77;17.13;;;2.50;99.90;;;;;;4867204;29;20232;-92
2020/12/03 10:50:49;;;;;;;30.67;18.20;;;2.50;99.90;;;;;;4869188;29;20183;-91
2020/12/03 10:53:19;;;;;;;27.70;17.50;;;2.50;99.90;;;;;;4903695;29;20179;-96
2020/12/03 10:56:02;;;;;;;28.17;17.47;;;2.50;99.90;;;;;;4891703;29;20619;-94
2020/12/03 10:58:40;;;;;;;31.30;17.80;;;2.50;99.90;;;;;;4892489;29;20223;-94
2020/12/03 11:01:10;;;;;;;33.10;17.83;;;2.50;99.90;;;;;;4893094;29;20175;-96
2020/12/03 11:03:38;;;;;;;28.37;16.03;;;2.60;99.90;;;;;;4896181;29;20184;-96
2020/12/03 11:06:10;;;;;;;28.77;17.30;;;2.50;99.90;;;;;;4883139;29;20184;-95
2020/12/03 11:08:38;;;;;;;30.63;18.10;;;2.60;99.90;;;;;;4875726;29;20241;-97
2020/12/03 11:11:05;;;;;;;29.60;17.77;;;2.60;99.90;;;;;;4877053;29;20233;-96
2020/12/03 11:13:31;;;;;;;27.93;16.87;;;2.60;99.90;;;;;;4877047;29;20208;-94
2020/12/03 11:16:11;;;;;;;29.40;17.20;;;2.60;99.90;;;;;;4874952;29;20216;-96
2020/12/03 11:18:48;;;;;;;28.67;17.37;;;2.60;99.90;;;;;;4873895;29;20216;-96
2020/12/03 11:21:21;;;;;;;27.73;16.80;;;2.60;99.90;;;;;;4881852;29;20326;-94
2020/12/03 11:24:05;;;;;;;28.77;17.27;;;2.70;99.90;;;;;;4887337;29;20188;-96
2020/12/03 11:26:39;;;;;;;26.13;16.97;;;2.70;99.90;;;;;;4907661;29;20250;-96
2020/12/03 11:29:13;;;;;;;28.33;17.27;;;2.60;99.90;;;;;;4889136;29;20179;-96
2020/12/03 11:31:40;;;;;;;28.50;16.73;;;2.60;99.90;;;;;;4888331;29;20689;-94
2020/12/03 11:34:09;;;;;;;29.27;18.37;;;2.60;99.90;;;;;;4886946;29;20211;-91
2020/12/03 11:36:44;;;;;;;29.80;18.07;;;2.60;99.90;;;;;;4906013;29;20180;-92
2020/12/03 11:39:10;;;;;;;29.93;17.57;;;2.70;99.90;;;;;;4887475;29;20227;-94
2020/12/03 11:49:24;;;;;;;32.07;18.10;;;2.80;99.90;;;;;;4906002;29;20199;-93
2020/12/03 11:51:49;;;;;;;29.33;18.20;;;2.80;99.90;;;;;;4887558;29;20182;-91
2020/12/03 11:54:15;;;;;;;31.60;18.47;;;2.80;99.90;;;;;;4886499;29;20223;-93
2020/12/03 11:56:59;;;;;;;30.13;17.53;;;2.90;99.90;;;;;;4886064;29;20697;-92
2020/12/03 11:59:36;;;;;;;30.77;17.70;;;2.90;99.90;;;;;;4886506;29;20195;-93
2020/12/03 12:02:03;;;;;;;31.90;18.93;;;2.90;99.90;;;;;;4884472;29;20183;-92
2020/12/03 12:04:42;;;;;;;30.73;18.07;;;2.90;99.90;;;;;;4884773;29;20196;-92
2020/12/03 12:07:17;;;;;;;34.73;19.63;;;2.90;99.90;;;;;;4884405;29;20179;-92
2020/12/03 12:12:22;;;;;;;30.13;18.70;;;2.80;99.90;;;;;;4901616;29;20167;-93
2020/12/03 12:14:48;;;;;;;29.60;18.73;;;2.90;99.90;;;;;;4884158;29;20184;-93
2020/12/03 12:17:17;;;;;;;37.07;20.57;;;2.90;99.90;;;;;;4884098;29;20231;-92
2020/12/03 12:19:47;;;;;;;31.53;18.90;;;2.90;99.90;;;;;;4883810;29;20239;-93
2020/12/03 12:22:14;;;;;;;31.73;19.17;;;2.90;99.90;;;;;;4883556;29;20276;-92
2020/12/03 12:24:47;;;;;;;31.20;19.40;;;2.80;99.90;;;;;;4884025;29;20189;-92
2020/12/03 12:27:17;;;;;;;30.47;19.03;;;2.90;99.90;;;;;;4883866;29;20187;-93
2020/12/03 12:29:43;;;;;;;32.97;18.67;;;2.90;99.90;;;;;;4883739;29;20173;-92
2020/12/03 12:32:09;;;;;;;30.10;18.83;;;2.90;99.90;;;;;;4900335;29;20239;-93
2020/12/03 12:34:35;;;;;;;32.73;18.97;;;2.90;99.90;;;;;;4883895;29;20611;-92
2020/12/03 12:37:04;;;;;;;31.17;19.00;;;2.90;99.90;;;;;;4883957;29;20227;-91
2020/12/03 12:39:30;;;;;;;35.13;19.20;;;2.90;99.90;;;;;;4883703;29;20184;-92
2020/12/03 12:42:07;;;;;;;30.83;19.07;;;2.90;99.90;;;;;;4883690;29;20235;-92
2020/12/03 12:44:36;;;;;;;30.73;18.77;;;2.90;99.90;;;;;;4884182;29;20199;-93
2020/12/03 12:47:13;;;;;;;31.80;18.97;;;2.90;99.90;;;;;;4883434;29;20184;-93
2020/12/03 12:49:42;;;;;;;31.47;19.00;;;2.90;99.90;;;;;;4900462;29;20693;-92
2020/12/03 12:52:07;;;;;;;30.90;19.10;;;2.90;99.90;;;;;;4898840;29;20220;-93
2020/12/03 12:54:33;;;;;;;30.73;18.03;;;2.90;99.90;;;;;;4883547;29;20280;-92
2020/12/03 12:57:07;;;;;;;34.20;19.67;;;2.90;99.90;;;;;;4882652;29;20187;-92
2020/12/03 12:59:33;;;;;;;29.70;18.37;;;2.90;99.90;;;;;;4868639;29;20198;-92
2020/12/03 13:01:58;;;;;;;30.90;18.50;;;2.90;99.90;;;;;;4864944;29;20211;-93
2020/12/03 13:04:25;;;;;;;32.70;18.47;;;2.90;99.90;;;;;;4885044;29;20624;-92
2020/12/03 13:07:06;;;;;;;28.40;17.40;;;2.90;99.90;;;;;;4880934;29;20612;-93
2020/12/03 13:09:32;;;;;;;30.03;17.90;;;2.90;99.90;;;;;;4865787;29;20177;-96
2020/12/03 13:11:58;;;;;;;33.77;19.10;;;2.90;99.90;;;;;;4865858;29;20890;-95
2020/12/03 13:14:27;;;;;;;36.00;19.13;;;2.90;99.90;;;;;;4865862;29;20282;-93
2020/12/03 13:17:49;;;;;;;;;;;;;;;;;;;;;
2020/12/03 13:20:15;;;;;;;33.50;17.83;;;2.90;99.90;;;;;;4892775;29;20569;-93
2020/12/03 13:22:41;;;;;;;34.03;18.63;;;2.90;99.90;;;;;;4883569;29;20275;-93
2020/12/03 13:25:07;;;;;;;32.50;18.90;;;2.90;99.90;;;;;;4900370;29;20183;-94
2020/12/03 13:27:35;;;;;;;29.80;18.87;;;2.90;99.90;;;;;;4897249;29;20213;-95
2020/12/03 13:30:00;;;;;;;34.70;19.37;;;2.90;99.90;;;;;;4883031;29;20187;-94